createdAt,value
2019-05-19T00:01:36.244Z,14.80
2019-05-19T00:04:10.052Z,14.70
2019-05-19T00:06:40.334Z,14.70
2019-05-19T00:09:10.379Z,14.60
2019-05-19T00:11:40.466Z,14.60
2019-05-19T00:14:10.879Z,14.50
2019-05-19T00:16:40.980Z,14.40
2019-05-19T00:19:25.892Z,14.40
2019-05-19T00:21:44.623Z,14.40
2019-05-19T00:24:14.753Z,14.40
2019-05-19T00:26:44.875Z,14.40
2019-05-19T00:29:14.936Z,14.40
2019-05-19T00:31:45.161Z,14.40
2019-05-19T00:34:15.360Z,14.40
2019-05-19T00:36:45.547Z,14.30
2019-05-19T00:39:15.719Z,14.30
2019-05-19T00:41:45.870Z,14.40
2019-05-19T00:44:17.307Z,14.40
2019-05-19T00:46:47.705Z,14.40
2019-05-19T00:49:17.922Z,14.50
2019-05-19T00:51:48.219Z,14.40
2019-05-19T00:54:18.837Z,14.40
2019-05-19T00:56:50.211Z,14.40
2019-05-19T00:59:24.531Z,14.50
2019-05-19T01:01:54.660Z,14.50
2019-05-19T01:04:24.810Z,14.50
2019-05-19T01:06:54.947Z,14.50
2019-05-19T01:09:26.151Z,14.50
2019-05-19T01:11:57.639Z,14.50
2019-05-19T01:14:30.556Z,14.50
2019-05-19T01:17:00.660Z,14.40
2019-05-19T01:19:30.961Z,14.40
2019-05-19T01:22:02.018Z,14.40
2019-05-19T01:24:32.082Z,14.30
2019-05-19T01:27:02.310Z,14.30
2019-05-19T01:29:32.522Z,14.20
2019-05-19T01:32:02.832Z,14.20
2019-05-19T01:34:32.968Z,14.20
2019-05-19T01:37:05.194Z,14.20
2019-05-19T01:39:35.349Z,14.10
2019-05-19T01:42:05.497Z,14.20
2019-05-19T01:44:38.992Z,14.20
2019-05-19T01:47:09.165Z,14.10
2019-05-19T01:49:39.209Z,14.10
2019-05-19T01:52:09.388Z,14.10
2019-05-19T01:54:39.428Z,14.00
2019-05-19T01:57:09.572Z,14.00
2019-05-19T01:59:39.631Z,14.00
2019-05-19T02:02:10.434Z,14.00
2019-05-19T02:04:40.668Z,13.90
2019-05-19T02:07:10.835Z,13.90
2019-05-19T02:09:40.870Z,13.90
2019-05-19T02:12:11.154Z,14.00
2019-05-19T02:14:41.230Z,14.00
2019-05-19T02:17:12.399Z,14.00
2019-05-19T02:19:42.579Z,14.10
2019-05-19T02:22:12.709Z,14.10
2019-05-19T02:24:42.789Z,14.10
2019-05-19T02:27:12.976Z,14.10
2019-05-19T02:29:43.066Z,14.10
2019-05-19T02:32:14.135Z,14.20
2019-05-19T02:34:46.121Z,14.10
2019-05-19T02:37:16.940Z,14.10
2019-05-19T02:39:47.096Z,14.10
2019-05-19T02:42:19.358Z,14.00
2019-05-19T02:44:50.604Z,14.00
2019-05-19T02:47:23.079Z,14.00
2019-05-19T02:49:55.091Z,13.90
2019-05-19T02:52:28.276Z,13.90
2019-05-19T02:55:00.353Z,13.80
2019-05-19T02:57:32.198Z,13.80
2019-05-19T03:00:02.770Z,13.70
2019-05-19T03:02:33.468Z,13.70
2019-05-19T03:05:04.190Z,13.70
2019-05-19T03:07:34.879Z,13.60
2019-05-19T03:10:05.303Z,13.60
2019-05-19T03:12:35.473Z,13.60
2019-05-19T03:15:08.466Z,13.60
2019-05-19T03:17:38.623Z,13.60
2019-05-19T03:20:08.743Z,13.60
2019-05-19T03:22:40.438Z,13.60
2019-05-19T03:25:11.101Z,13.60
2019-05-19T03:27:41.271Z,13.60
2019-05-19T03:30:32.444Z,13.70
2019-05-19T03:33:04.045Z,13.60
2019-05-19T03:35:34.296Z,13.60
2019-05-19T03:38:04.516Z,13.60
2019-05-19T03:40:34.727Z,13.60
2019-05-19T03:43:05.160Z,13.60
2019-05-19T03:45:35.391Z,13.50
2019-05-19T03:48:08.019Z,13.50
2019-05-19T03:50:38.158Z,13.50
2019-05-19T03:53:08.259Z,13.50
2019-05-19T03:55:38.816Z,13.50
2019-05-19T03:58:09.304Z,13.50
2019-05-19T04:00:39.464Z,13.60
2019-05-19T04:03:09.640Z,13.60
2019-05-19T04:05:39.782Z,13.60
2019-05-19T04:08:09.956Z,13.60
2019-05-19T04:10:50.126Z,13.70
2019-05-19T04:13:20.208Z,13.70
2019-05-19T04:15:50.452Z,13.80
2019-05-19T04:18:20.612Z,13.80
2019-05-19T04:20:50.788Z,13.90
2019-05-19T04:23:41.611Z,13.90
2019-05-19T04:26:11.740Z,13.90
2019-05-19T04:28:43.598Z,14.00
2019-05-19T04:31:13.732Z,14.00
2019-05-19T04:33:43.841Z,14.10
2019-05-19T04:36:13.962Z,14.10
2019-05-19T04:38:44.066Z,14.20
2019-05-19T04:41:14.131Z,14.20
2019-05-19T04:43:44.455Z,14.20
2019-05-19T04:46:14.617Z,14.20
2019-05-19T04:48:44.877Z,14.30
2019-05-19T04:51:15.697Z,14.40
2019-05-19T04:53:45.885Z,14.40
2019-05-19T04:56:19.737Z,14.40
2019-05-19T04:58:48.822Z,14.50
2019-05-19T05:01:18.877Z,14.50
2019-05-19T05:03:49.075Z,14.50
2019-05-19T05:06:19.998Z,14.60
2019-05-19T05:08:50.190Z,14.70
2019-05-19T05:11:20.513Z,14.70
2019-05-19T05:13:50.723Z,14.80
2019-05-19T05:16:23.964Z,14.80
2019-05-19T05:18:54.585Z,14.90
2019-05-19T05:21:24.738Z,14.90
2019-05-19T05:23:54.953Z,15.00
2019-05-19T05:26:26.578Z,15.00
2019-05-19T05:28:56.770Z,15.00
2019-05-19T05:31:26.923Z,15.00
2019-05-19T05:33:57.122Z,15.10
2019-05-19T05:36:27.814Z,15.10
2019-05-19T05:38:58.306Z,15.10
2019-05-19T05:41:28.603Z,15.10
2019-05-19T05:43:59.380Z,15.10
2019-05-19T05:46:29.505Z,15.10
2019-05-19T05:48:59.769Z,15.10
2019-05-19T05:51:29.811Z,15.10
2019-05-19T05:54:01.058Z,15.10
2019-05-19T05:56:31.097Z,15.10
2019-05-19T05:59:03.110Z,15.20
2019-05-19T06:01:35.839Z,15.30
2019-05-19T06:04:06.046Z,15.40
2019-05-19T06:06:36.118Z,15.50
2019-05-19T06:09:07.382Z,15.60
2019-05-19T06:11:37.474Z,15.80
2019-05-19T06:14:07.645Z,15.90
2019-05-19T06:16:37.781Z,15.90
2019-05-19T06:19:07.950Z,15.90
2019-05-19T06:21:38.038Z,16.00
2019-05-19T06:24:08.216Z,16.00
2019-05-19T06:26:38.275Z,16.00
2019-05-19T06:29:10.214Z,15.90
2019-05-19T06:31:40.481Z,15.80
2019-05-19T06:34:10.720Z,15.80
2019-05-19T06:36:40.878Z,15.80
2019-05-19T06:39:11.146Z,15.90
2019-05-19T06:41:41.340Z,15.80
2019-05-19T06:44:11.924Z,15.80
2019-05-19T06:46:42.164Z,15.90
2019-05-19T06:49:12.406Z,15.80
2019-05-19T06:51:43.034Z,15.80
2019-05-19T06:54:13.332Z,16.00
2019-05-19T06:56:45.004Z,16.10
2019-05-19T06:59:15.197Z,16.30
2019-05-19T07:01:45.404Z,16.40
2019-05-19T07:04:15.784Z,16.50
2019-05-19T07:06:49.869Z,16.70
2019-05-19T07:09:20.045Z,16.90
2019-05-19T07:11:52.978Z,16.90
2019-05-19T07:14:23.190Z,17.00
2019-05-19T07:16:58.799Z,16.90
2019-05-19T07:19:30.464Z,17.00
2019-05-19T07:22:00.840Z,17.10
2019-05-19T07:24:30.975Z,17.20
2019-05-19T07:27:01.143Z,17.20
2019-05-19T07:29:34.354Z,17.30
2019-05-19T07:32:04.541Z,17.30
2019-05-19T07:34:36.109Z,17.30
2019-05-19T07:37:06.281Z,17.20
2019-05-19T07:39:36.644Z,17.30
2019-05-19T07:42:10.095Z,17.50
2019-05-19T07:44:40.278Z,17.40
2019-05-19T07:47:10.509Z,17.30
2019-05-19T07:49:43.161Z,17.40
2019-05-19T07:52:13.325Z,17.30
2019-05-19T07:54:43.735Z,17.20
2019-05-19T07:57:14.021Z,17.20
2019-05-19T07:59:45.475Z,17.30
2019-05-19T08:02:15.653Z,17.50
2019-05-19T08:04:45.858Z,17.80
2019-05-19T08:07:16.091Z,18.20
2019-05-19T08:09:46.254Z,18.40
2019-05-19T08:12:16.563Z,18.40
2019-05-19T08:14:46.925Z,18.40
2019-05-19T08:17:17.170Z,18.10
2019-05-19T08:19:49.516Z,17.60
2019-05-19T08:22:19.734Z,17.20
2019-05-19T08:24:49.873Z,17.10
2019-05-19T08:27:20.023Z,17.30
2019-05-19T08:29:50.306Z,17.60
2019-05-19T08:32:23.154Z,17.90
2019-05-19T08:34:53.667Z,18.00
2019-05-19T08:37:23.924Z,18.10
2019-05-19T08:39:54.084Z,18.40
2019-05-19T08:42:25.865Z,18.80
2019-05-19T08:44:56.016Z,19.00
2019-05-19T08:47:26.569Z,19.10
2019-05-19T08:49:56.768Z,19.20
2019-05-19T08:52:27.321Z,19.20
2019-05-19T08:54:57.694Z,19.20
2019-05-19T08:57:28.190Z,19.10
2019-05-19T08:59:58.375Z,19.10
2019-05-19T09:02:28.624Z,19.20
2019-05-19T09:04:58.827Z,19.10
2019-05-19T09:07:29.004Z,19.20
2019-05-19T09:10:02.114Z,19.30
2019-05-19T09:12:33.938Z,19.30
2019-05-19T09:15:04.862Z,19.40
2019-05-19T09:17:35.610Z,19.70
2019-05-19T09:20:05.871Z,19.70
2019-05-19T09:22:38.328Z,19.60
2019-05-19T09:25:10.186Z,19.60
2019-05-19T09:27:40.588Z,19.60
2019-05-19T09:30:11.485Z,19.70
2019-05-19T09:32:42.467Z,19.80
2019-05-19T09:35:12.867Z,19.90
2019-05-19T09:37:43.067Z,20.20
2019-05-19T09:40:14.615Z,20.50
2019-05-19T09:42:48.483Z,20.80
2019-05-19T09:45:19.989Z,21.30
2019-05-19T09:47:50.173Z,21.70
2019-05-19T09:50:20.441Z,22.00
2019-05-19T09:52:53.407Z,21.90
2019-05-19T09:55:23.610Z,21.70
2019-05-19T09:57:53.706Z,21.60
2019-05-19T10:00:24.299Z,21.50
2019-05-19T10:02:56.208Z,21.50
2019-05-19T10:05:26.418Z,21.40
2019-05-19T10:07:56.471Z,21.20
2019-05-19T10:11:01.288Z,21.40
2019-05-19T10:13:31.658Z,21.30
2019-05-19T10:16:04.525Z,21.60
2019-05-19T10:18:34.848Z,21.80
2019-05-19T10:21:05.166Z,21.90
2019-05-19T10:23:35.327Z,21.90
2019-05-19T10:26:05.668Z,22.20
2019-05-19T10:28:35.867Z,22.20
2019-05-19T10:31:06.386Z,22.20
2019-05-19T10:33:37.375Z,22.30
2019-05-19T10:36:07.597Z,22.20
2019-05-19T10:38:41.406Z,22.20
2019-05-19T10:41:11.650Z,22.30
2019-05-19T10:43:41.746Z,22.30
2019-05-19T10:46:14.450Z,22.40
2019-05-19T10:48:44.727Z,22.60
2019-05-19T10:51:14.954Z,22.90
2019-05-19T10:53:46.967Z,23.40
2019-05-19T10:56:19.123Z,23.70
2019-05-19T10:58:49.626Z,24.00
2019-05-19T11:01:20.159Z,23.70
2019-05-19T11:03:50.362Z,23.50
2019-05-19T11:06:20.611Z,23.50
2019-05-19T11:08:50.690Z,23.30
2019-05-19T11:11:20.869Z,23.20
2019-05-19T11:13:51.486Z,22.90
2019-05-19T11:16:22.387Z,22.70
2019-05-19T11:18:52.541Z,22.60
2019-05-19T11:21:22.724Z,22.60
2019-05-19T11:23:55.894Z,22.70
2019-05-19T11:26:26.023Z,22.90
2019-05-19T11:28:56.458Z,23.40
2019-05-19T11:31:27.493Z,23.50
2019-05-19T11:33:57.631Z,23.70
2019-05-19T11:36:28.030Z,23.80
2019-05-19T11:38:59.591Z,23.90
2019-05-19T11:41:29.772Z,24.10
2019-05-19T11:44:02.355Z,24.30
2019-05-19T11:46:32.527Z,24.30
2019-05-19T11:49:04.161Z,24.40
2019-05-19T11:51:34.998Z,24.40
2019-05-19T11:54:05.369Z,24.30
2019-05-19T11:56:45.481Z,24.00
2019-05-19T11:59:15.879Z,24.10
2019-05-19T12:01:46.342Z,24.30
2019-05-19T12:04:16.429Z,24.30
2019-05-19T12:06:47.180Z,24.70
2019-05-19T12:09:18.144Z,25.00
2019-05-19T12:11:51.598Z,24.90
2019-05-19T12:14:23.302Z,24.70
2019-05-19T12:16:55.841Z,24.30
2019-05-19T12:19:26.141Z,24.00
2019-05-19T12:21:56.279Z,23.80
2019-05-19T12:24:26.335Z,23.70
2019-05-19T12:26:58.976Z,24.00
2019-05-19T12:29:28.685Z,24.10
2019-05-19T12:31:58.827Z,24.20
2019-05-19T12:34:28.877Z,24.50
2019-05-19T12:36:58.968Z,24.60
2019-05-19T12:39:30.647Z,24.60
2019-05-19T12:42:00.845Z,24.40
2019-05-19T12:44:30.986Z,24.10
2019-05-19T12:47:01.705Z,24.10
2019-05-19T12:49:31.758Z,24.40
2019-05-19T12:52:02.053Z,24.20
2019-05-19T12:54:33.171Z,24.00
2019-05-19T12:57:03.383Z,24.00
2019-05-19T12:59:33.540Z,23.80
2019-05-19T13:02:03.714Z,23.80
2019-05-19T13:04:33.943Z,23.90
2019-05-19T13:07:04.330Z,23.90
2019-05-19T13:09:35.388Z,23.80
2019-05-19T13:12:05.843Z,23.70
2019-05-19T13:14:36.338Z,23.80
2019-05-19T13:17:08.865Z,24.00
2019-05-19T13:19:39.122Z,24.20
2019-05-19T13:22:11.379Z,24.50
2019-05-19T13:24:41.445Z,24.60
2019-05-19T13:27:11.573Z,24.50
2019-05-19T13:29:41.926Z,24.70
2019-05-19T13:32:12.000Z,24.60
2019-05-19T13:34:42.189Z,24.40
2019-05-19T13:37:12.390Z,24.60
2019-05-19T13:39:42.480Z,24.90
2019-05-19T13:42:12.772Z,25.30
2019-05-19T13:44:42.859Z,25.40
2019-05-19T13:47:13.015Z,25.60
2019-05-19T13:49:43.081Z,25.50
2019-05-19T13:52:13.249Z,25.30
2019-05-19T13:54:43.686Z,25.40
2019-05-19T13:57:14.106Z,25.10
2019-05-19T13:59:44.667Z,25.10
2019-05-19T14:02:15.628Z,25.10
2019-05-19T14:04:45.848Z,24.70
2019-05-19T14:07:16.214Z,24.20
2019-05-19T14:09:46.501Z,23.90
2019-05-19T14:12:18.310Z,23.80
2019-05-19T14:14:48.532Z,23.60
2019-05-19T14:17:18.714Z,23.50
2019-05-19T14:19:48.807Z,23.70
2019-05-19T14:22:19.109Z,23.90
2019-05-19T14:24:49.399Z,23.90
2019-05-19T14:27:29.295Z,24.10
2019-05-19T14:29:52.613Z,23.90
2019-05-19T14:32:23.740Z,23.80
2019-05-19T14:34:53.993Z,23.50
2019-05-19T14:37:24.394Z,23.40
2019-05-19T14:39:54.969Z,23.40
2019-05-19T14:42:46.515Z,23.40
2019-05-19T14:45:17.018Z,23.10
2019-05-19T14:47:47.481Z,22.80
2019-05-19T14:50:18.528Z,22.60
2019-05-19T14:52:48.726Z,22.40
2019-05-19T14:55:18.974Z,22.10
2019-05-19T14:57:49.531Z,22.00
2019-05-19T15:00:21.080Z,21.80
2019-05-19T15:02:51.279Z,21.40
2019-05-19T15:05:21.375Z,21.00
2019-05-19T15:07:51.541Z,20.50
2019-05-19T15:10:21.616Z,19.90
2019-05-19T15:12:53.786Z,19.40
2019-05-19T15:15:23.937Z,19.00
2019-05-19T15:17:54.286Z,18.90
2019-05-19T15:20:24.475Z,18.80
2019-05-19T15:22:54.833Z,18.90
2019-05-19T15:25:25.116Z,18.90
2019-05-19T15:28:00.192Z,18.80
2019-05-19T15:30:27.361Z,18.60
2019-05-19T15:32:57.544Z,18.40
2019-05-19T15:35:27.892Z,18.10
2019-05-19T15:37:57.990Z,18.00
2019-05-19T15:40:28.173Z,17.80
2019-05-19T15:42:58.362Z,17.80
2019-05-19T15:45:28.553Z,17.60
2019-05-19T15:47:58.761Z,17.50
2019-05-19T15:50:28.926Z,17.30
2019-05-19T15:52:59.161Z,17.20
2019-05-19T15:55:29.482Z,17.00
2019-05-19T15:58:14.206Z,16.70
2019-05-19T16:00:31.642Z,16.30
2019-05-19T16:03:02.255Z,15.90
2019-05-19T16:05:32.404Z,15.60
2019-05-19T16:08:02.574Z,15.40
2019-05-19T16:10:32.630Z,15.20
2019-05-19T16:13:02.746Z,15.00
2019-05-19T16:15:32.852Z,14.90
2019-05-19T16:18:03.174Z,14.80
2019-05-19T16:20:33.329Z,14.70
2019-05-19T16:23:03.523Z,14.70
2019-05-19T16:25:33.699Z,14.70
2019-05-19T16:28:03.951Z,14.70
2019-05-19T16:30:34.081Z,14.70
2019-05-19T16:33:04.285Z,14.80
2019-05-19T16:35:34.426Z,14.80
2019-05-19T16:38:04.849Z,14.80
2019-05-19T16:40:35.083Z,14.80
2019-05-19T16:43:05.263Z,14.80
2019-05-19T16:45:35.385Z,14.90
2019-05-19T16:48:05.780Z,14.90
2019-05-19T16:50:35.863Z,14.90
2019-05-19T16:53:06.103Z,14.90
2019-05-19T16:55:36.345Z,14.90
2019-05-19T16:58:20.139Z,14.90
2019-05-19T17:00:38.668Z,14.90
2019-05-19T17:03:08.823Z,14.90
2019-05-19T17:05:38.895Z,14.90
2019-05-19T17:08:09.065Z,14.80
2019-05-19T17:10:39.412Z,14.80
2019-05-19T17:13:09.646Z,14.80
2019-05-19T17:15:39.842Z,14.80
2019-05-19T17:18:09.938Z,14.80
2019-05-19T17:20:40.205Z,14.70
2019-05-19T17:23:10.391Z,14.70
2019-05-19T17:25:40.504Z,14.60
2019-05-19T17:28:10.710Z,14.50
2019-05-19T17:30:40.820Z,14.50
2019-05-19T17:33:11.282Z,14.40
2019-05-19T17:35:41.762Z,14.40
2019-05-19T17:38:12.411Z,14.30
2019-05-19T17:40:42.587Z,14.30
2019-05-19T17:43:12.776Z,14.30
2019-05-19T17:45:43.082Z,14.30
2019-05-19T17:48:25.720Z,14.40
2019-05-19T17:50:45.039Z,14.30
2019-05-19T17:53:15.197Z,14.20
2019-05-19T17:55:46.664Z,14.20
2019-05-19T17:58:17.131Z,14.10
2019-05-19T18:00:47.359Z,14.10
2019-05-19T18:03:17.659Z,14.10
2019-05-19T18:05:47.756Z,14.00
2019-05-19T18:08:17.954Z,14.00
2019-05-19T18:10:48.108Z,13.90
2019-05-19T18:13:18.322Z,14.00
2019-05-19T18:15:48.463Z,14.00
2019-05-19T18:18:18.733Z,14.00
2019-05-19T18:20:48.878Z,14.00
2019-05-19T18:23:19.033Z,14.00
2019-05-19T18:25:49.267Z,14.00
2019-05-19T18:28:19.442Z,14.10
2019-05-19T18:30:49.592Z,14.10
2019-05-19T18:33:19.729Z,14.10
2019-05-19T18:35:49.836Z,14.20
2019-05-19T18:38:20.077Z,14.20
2019-05-19T18:40:50.313Z,14.20
2019-05-19T18:43:20.595Z,14.10
2019-05-19T18:45:50.702Z,14.10
2019-05-19T18:48:23.287Z,14.00
2019-05-19T18:50:53.142Z,14.00
2019-05-19T18:53:23.511Z,13.90
2019-05-19T18:55:53.897Z,13.90
2019-05-19T18:58:24.081Z,13.80
2019-05-19T19:00:54.234Z,13.80
2019-05-19T19:03:24.447Z,13.70
2019-05-19T19:05:55.379Z,13.60
2019-05-19T19:08:25.684Z,13.60
2019-05-19T19:10:56.300Z,13.60
2019-05-19T19:13:26.519Z,13.60
2019-05-19T19:15:56.795Z,13.60
2019-05-19T19:18:27.006Z,13.60
2019-05-19T19:20:57.493Z,13.60
2019-05-19T19:23:27.829Z,13.70
2019-05-19T19:25:58.078Z,13.70
2019-05-19T19:28:28.455Z,13.70
2019-05-19T19:30:58.780Z,13.80
2019-05-19T19:33:30.702Z,13.80
2019-05-19T19:36:02.795Z,13.70
2019-05-19T19:38:33.054Z,13.70
2019-05-19T19:41:04.982Z,13.70
2019-05-19T19:43:35.220Z,13.70
2019-05-19T19:46:06.156Z,13.70
2019-05-19T19:48:36.740Z,13.60
2019-05-19T19:51:07.151Z,13.60
2019-05-19T19:53:38.033Z,13.60
2019-05-19T19:56:08.314Z,13.60
2019-05-19T19:58:38.899Z,13.50
2019-05-19T20:01:09.224Z,13.40
2019-05-19T20:03:40.625Z,13.40
2019-05-19T20:06:11.975Z,13.40
2019-05-19T20:08:42.153Z,13.40
2019-05-19T20:11:12.307Z,13.40
2019-05-19T20:13:42.582Z,13.40
2019-05-19T20:16:12.834Z,13.40
2019-05-19T20:18:43.847Z,13.30
2019-05-19T20:21:15.581Z,13.40
2019-05-19T20:23:45.935Z,13.30
2019-05-19T20:26:16.133Z,13.30
2019-05-19T20:28:46.580Z,13.30
2019-05-19T20:31:16.728Z,13.20
2019-05-19T20:33:46.973Z,13.30
2019-05-19T20:36:17.102Z,13.30
2019-05-19T20:38:47.327Z,13.30
2019-05-19T20:41:17.534Z,13.40
2019-05-19T20:43:47.857Z,13.40
2019-05-19T20:46:18.224Z,13.40
2019-05-19T20:48:48.508Z,13.40
2019-05-19T20:51:18.719Z,13.50
2019-05-19T20:53:49.020Z,13.40
2019-05-19T20:56:19.324Z,13.40
2019-05-19T20:58:49.573Z,13.50
2019-05-19T21:01:19.768Z,13.50
2019-05-19T21:03:50.460Z,13.60
2019-05-19T21:06:20.649Z,13.50
2019-05-19T21:08:50.895Z,13.50
2019-05-19T21:11:21.033Z,13.50
2019-05-19T21:13:51.411Z,13.40
2019-05-19T21:16:22.547Z,13.40
2019-05-19T21:18:52.726Z,13.40
2019-05-19T21:21:22.877Z,13.40
2019-05-19T21:23:53.046Z,13.40
2019-05-19T21:26:23.075Z,13.40
2019-05-19T21:28:53.155Z,13.40
2019-05-19T21:31:23.380Z,13.50
2019-05-19T21:33:53.625Z,13.50
2019-05-19T21:36:23.850Z,13.50
2019-05-19T21:38:54.034Z,13.50
2019-05-19T21:41:24.150Z,13.50
2019-05-19T21:43:54.656Z,13.40
2019-05-19T21:46:24.930Z,13.40
2019-05-19T21:48:55.233Z,13.40
2019-05-19T21:51:26.278Z,13.40
2019-05-19T21:53:56.383Z,13.30
2019-05-19T21:56:26.486Z,13.30
2019-05-19T21:58:56.625Z,13.20
2019-05-19T22:01:29.225Z,13.20
2019-05-19T22:03:59.324Z,13.20
2019-05-19T22:06:31.149Z,13.20
2019-05-19T22:09:01.323Z,13.30
2019-05-19T22:11:32.394Z,13.30
2019-05-19T22:14:02.701Z,13.30
2019-05-19T22:16:32.832Z,13.20
2019-05-19T22:19:03.094Z,13.20
2019-05-19T22:21:33.207Z,13.10
2019-05-19T22:24:03.403Z,13.10
2019-05-19T22:26:33.537Z,13.10
2019-05-19T22:29:03.733Z,13.20
2019-05-19T22:31:36.926Z,13.30
2019-05-19T22:34:05.884Z,13.20
2019-05-19T22:36:36.014Z,13.20
2019-05-19T22:39:07.161Z,13.30
2019-05-19T22:41:37.416Z,13.30
2019-05-19T22:44:07.633Z,13.30
2019-05-19T22:46:37.726Z,13.20
2019-05-19T22:49:08.741Z,13.20
2019-05-19T22:51:38.830Z,13.20
2019-05-19T22:54:09.010Z,13.10
2019-05-19T22:56:39.253Z,13.10
2019-05-19T22:59:19.216Z,13.00
2019-05-19T23:01:51.491Z,12.90
2019-05-19T23:04:13.304Z,12.90
2019-05-19T23:06:43.436Z,12.90
2019-05-19T23:09:13.666Z,13.00
2019-05-19T23:11:45.393Z,13.00
2019-05-19T23:14:15.696Z,13.00
2019-05-19T23:16:45.820Z,13.00
2019-05-19T23:19:15.965Z,12.90
2019-05-19T23:21:46.030Z,12.90
2019-05-19T23:24:16.132Z,12.90
2019-05-19T23:26:46.303Z,12.80
2019-05-19T23:29:16.474Z,12.80
2019-05-19T23:31:46.662Z,12.70
2019-05-19T23:34:16.756Z,12.80
2019-05-19T23:36:46.931Z,12.80
2019-05-19T23:39:17.219Z,12.70
2019-05-19T23:41:47.886Z,12.70
2019-05-19T23:44:18.022Z,12.60
2019-05-19T23:46:48.307Z,12.60
2019-05-19T23:49:18.564Z,12.60
2019-05-19T23:51:49.222Z,12.60
2019-05-19T23:54:19.366Z,12.60
2019-05-19T23:56:49.737Z,12.60
2019-05-19T23:59:19.838Z,12.60
